Time;durP1;ratioP1;P1;durP2;ratioP2;P2;SDS_P1;SDS_P2;PMS_P1;PMS_P2;Temp;Humidity;BMP_temperature;BMP_pressure;BME280_temperature;BME280_humidity;BME280_pressure;Samples;Min_cycle;Max_cycle;Signal;HPM_P1;HPM_P2
2021/09/28 00:00:10;;;;;;;10.85;5.20;;;;;;;;;;5038561;28;20544;-74
2021/09/28 00:02:35;;;;;;;10.00;4.68;;;;;;;;;;5043263;28;20208;-74
2021/09/28 00:05:00;;;;;;;13.10;6.45;;;;;;;;;;5035997;28;20309;-74
2021/09/28 00:07:26;;;;;;;14.75;7.05;;;;;;;;;;5043823;28;20286;-74
2021/09/28 00:09:51;;;;;;;10.43;6.68;;;;;;;;;;5039203;28;20181;-74
2021/09/28 00:12:18;;;;;;;13.75;6.78;;;;;;;;;;5035314;28;20273;-74
2021/09/28 00:14:44;;;;;;;17.83;7.82;;;;;;;;;;5049929;28;20193;-74
2021/09/28 00:17:09;;;;;;;12.55;6.72;;;;;;;;;;5035509;28;20236;-74
2021/09/28 00:19:35;;;;;;;10.57;7.30;;;;;;;;;;5039973;28;20182;-74
2021/09/28 00:22:00;;;;;;;15.02;6.93;;;;;;;;;;5036135;28;20300;-74
2021/09/28 00:24:26;;;;;;;13.13;6.93;;;;;;;;;;5040667;28;20616;-74
2021/09/28 00:26:51;;;;;;;12.32;7.68;;;;;;;;;;5037086;28;20182;-74
2021/09/28 00:29:16;;;;;;;18.05;9.02;;;;;;;;;;5045452;28;20181;-74
2021/09/28 00:31:42;;;;;;;12.52;7.35;;;;;;;;;;5035756;28;20189;-74
2021/09/28 00:34:07;;;;;;;12.80;7.07;;;;;;;;;;5040500;28;20284;-74
2021/09/28 00:36:32;;;;;;;15.60;8.05;;;;;;;;;;5035980;28;20632;-74
2021/09/28 00:38:58;;;;;;;14.48;7.22;;;;;;;;;;5050900;28;20215;-74
2021/09/28 00:41:23;;;;;;;13.30;7.93;;;;;;;;;;5042553;28;20201;-74
2021/09/28 00:43:53;;;;;;;13.20;8.02;;;;;;;;;;5036132;28;20278;-74
2021/09/28 00:46:18;;;;;;;18.35;8.05;;;;;;;;;;5039347;28;20190;-74
2021/09/28 00:48:44;;;;;;;12.02;7.18;;;;;;;;;;5037898;28;20193;-74
2021/09/28 00:51:11;;;;;;;15.73;7.95;;;;;;;;;;5039735;28;20192;-74
2021/09/28 00:53:39;;;;;;;14.52;7.20;;;;;;;;;;5037400;28;20201;-74
2021/09/28 00:56:07;;;;;;;11.20;7.47;;;;;;;;;;5037798;28;20182;-74
2021/09/28 00:58:34;;;;;;;17.80;9.32;;;;;;;;;;5038443;28;20212;-74
2021/09/28 01:01:01;;;;;;;20.00;10.02;;;;;;;;;;5040456;28;20265;-74
2021/09/28 01:03:27;;;;;;;18.95;9.15;;;;;;;;;;5034457;28;20633;-74
2021/09/28 01:05:52;;;;;;;14.52;8.65;;;;;;;;;;5043932;28;20183;-73
2021/09/28 01:08:18;;;;;;;16.95;8.93;;;;;;;;;;5034322;28;20289;-74
2021/09/28 01:10:43;;;;;;;19.08;8.65;;;;;;;;;;5048820;28;20202;-74
2021/09/28 01:13:08;;;;;;;20.08;9.18;;;;;;;;;;5034973;28;20181;-74
2021/09/28 01:15:34;;;;;;;14.07;8.65;;;;;;;;;;5039592;28;20181;-74
2021/09/28 01:18:01;;;;;;;19.13;9.48;;;;;;;;;;5045265;28;20189;-74
2021/09/28 01:20:27;;;;;;;22.40;10.68;;;;;;;;;;5029173;28;20475;-74
2021/09/28 01:22:52;;;;;;;18.80;9.73;;;;;;;;;;5042401;28;20614;-74
2021/09/28 01:25:17;;;;;;;17.38;10.20;;;;;;;;;;5039301;28;20251;-74
2021/09/28 01:27:43;;;;;;;17.52;10.27;;;;;;;;;;5042101;28;20671;-74
2021/09/28 01:30:10;;;;;;;23.52;10.27;;;;;;;;;;5035125;28;20611;-74
2021/09/28 01:32:36;;;;;;;17.25;10.27;;;;;;;;;;5041188;28;20182;-74
2021/09/28 01:35:02;;;;;;;17.27;10.40;;;;;;;;;;5039288;28;20188;-74
2021/09/28 01:37:33;;;;;;;25.85;11.35;;;;;;;;;;5041151;28;20204;-75
2021/09/28 01:39:58;;;;;;;23.17;11.30;;;;;;;;;;5035379;28;20284;-74
2021/09/28 01:42:24;;;;;;;25.73;11.25;;;;;;;;;;5040563;28;20420;-74
2021/09/28 01:44:49;;;;;;;22.20;11.07;;;;;;;;;;5038561;28;20189;-74
2021/09/28 01:47:15;;;;;;;20.13;10.77;;;;;;;;;;5037075;28;20201;-74
2021/09/28 01:49:40;;;;;;;22.92;11.98;;;;;;;;;;5039886;28;20189;-74
2021/09/28 01:52:06;;;;;;;19.75;11.27;;;;;;;;;;5033877;28;20173;-74
2021/09/28 01:54:31;;;;;;;19.38;10.43;;;;;;;;;;5040549;28;20193;-74
2021/09/28 01:56:57;;;;;;;19.23;11.50;;;;;;;;;;5036472;28;20566;-74
2021/09/28 01:59:22;;;;;;;26.20;13.57;;;;;;;;;;5038838;28;20232;-74
2021/09/28 02:01:47;;;;;;;24.88;13.10;;;;;;;;;;5035907;28;20292;-74
2021/09/28 02:04:13;;;;;;;23.95;12.35;;;;;;;;;;5041298;28;20242;-74
2021/09/28 02:06:39;;;;;;;25.17;13.18;;;;;;;;;;5035969;28;20319;-74
2021/09/28 02:09:07;;;;;;;23.48;12.82;;;;;;;;;;5042056;28;20265;-74
2021/09/28 02:11:32;;;;;;;20.13;11.90;;;;;;;;;;5034955;28;20228;-74
2021/09/28 02:14:02;;;;;;;23.27;12.40;;;;;;;;;;5040705;28;20190;-74
2021/09/28 02:16:28;;;;;;;24.27;11.88;;;;;;;;;;5033099;28;20691;-73
2021/09/28 02:18:53;;;;;;;22.95;12.73;;;;;;;;;;5040587;28;20194;-74
2021/09/28 02:21:18;;;;;;;29.33;13.55;;;;;;;;;;5042953;28;20209;-74
2021/09/28 02:23:44;;;;;;;25.35;11.82;;;;;;;;;;5032043;28;20204;-74
2021/09/28 02:26:09;;;;;;;26.23;13.50;;;;;;;;;;5043426;28;20263;-74
2021/09/28 02:28:35;;;;;;;26.45;13.05;;;;;;;;;;5036880;28;20211;-74
2021/09/28 02:31:00;;;;;;;25.65;12.32;;;;;;;;;;5038300;28;20626;-74
2021/09/28 02:33:25;;;;;;;19.45;11.15;;;;;;;;;;5032355;28;20188;-74
2021/09/28 02:35:51;;;;;;;20.73;11.35;;;;;;;;;;5036346;28;20628;-74
2021/09/28 02:38:16;;;;;;;26.75;12.93;;;;;;;;;;5031202;28;20194;-74
2021/09/28 02:40:42;;;;;;;25.73;12.50;;;;;;;;;;5044628;28;20193;-75
2021/09/28 02:43:07;;;;;;;21.67;12.70;;;;;;;;;;5032381;28;20565;-74
2021/09/28 02:45:33;;;;;;;22.60;12.93;;;;;;;;;;5045478;28;20543;-74
2021/09/28 02:47:58;;;;;;;25.90;13.63;;;;;;;;;;5035362;28;20193;-74
2021/09/28 02:50:23;;;;;;;26.00;13.13;;;;;;;;;;5035405;28;20656;-74
2021/09/28 02:52:49;;;;;;;27.60;13.00;;;;;;;;;;5040612;28;20652;-74
2021/09/28 02:55:14;;;;;;;27.35;13.52;;;;;;;;;;5035569;28;20186;-74
2021/09/28 02:57:39;;;;;;;23.42;13.13;;;;;;;;;;5042511;28;20209;-74
2021/09/28 03:00:07;;;;;;;29.35;12.77;;;;;;;;;;5036623;28;20307;-74
2021/09/28 03:02:32;;;;;;;31.27;13.82;;;;;;;;;;5040076;28;20228;-74
2021/09/28 03:04:57;;;;;;;25.52;12.23;;;;;;;;;;5034534;28;20952;-73
2021/09/28 03:07:24;;;;;;;25.77;12.43;;;;;;;;;;5039937;28;20274;-74
2021/09/28 03:09:49;;;;;;;28.60;12.70;;;;;;;;;;5036615;28;20254;-74
2021/09/28 03:12:14;;;;;;;26.20;13.75;;;;;;;;;;5041482;28;20637;-74
2021/09/28 03:14:40;;;;;;;25.73;11.77;;;;;;;;;;5036341;28;20600;-74
2021/09/28 03:17:05;;;;;;;26.40;13.75;;;;;;;;;;5039850;28;20611;-73
2021/09/28 03:19:31;;;;;;;28.00;13.20;;;;;;;;;;5039131;28;20189;-73
2021/09/28 03:21:57;;;;;;;28.70;13.90;;;;;;;;;;5030418;28;20213;-74
2021/09/28 03:24:22;;;;;;;28.73;13.13;;;;;;;;;;5034505;28;20611;-74
2021/09/28 03:26:48;;;;;;;26.83;14.07;;;;;;;;;;5033722;28;20247;-74
2021/09/28 03:29:13;;;;;;;24.98;14.18;;;;;;;;;;5041326;28;20247;-74
2021/09/28 03:31:39;;;;;;;30.17;15.25;;;;;;;;;;5036520;28;20668;-74
2021/09/28 03:34:04;;;;;;;29.08;14.73;;;;;;;;;;5039581;28;20185;-74
2021/09/28 03:36:30;;;;;;;30.98;15.85;;;;;;;;;;5035175;28;20193;-74
2021/09/28 03:38:55;;;;;;;24.55;14.73;;;;;;;;;;5039378;28;20221;-74
2021/09/28 03:41:21;;;;;;;27.38;13.85;;;;;;;;;;5030587;28;20178;-74
2021/09/28 03:43:46;;;;;;;27.52;13.27;;;;;;;;;;5040376;28;20182;-74
2021/09/28 03:46:12;;;;;;;27.65;13.57;;;;;;;;;;5029282;28;20547;-74
2021/09/28 03:48:37;;;;;;;24.45;12.40;;;;;;;;;;5039221;28;20483;-74
2021/09/28 03:51:03;;;;;;;25.38;12.80;;;;;;;;;;5040907;28;20204;-74
2021/09/28 03:53:29;;;;;;;21.30;11.32;;;;;;;;;;5026912;28;20186;-74
2021/09/28 03:55:54;;;;;;;25.63;11.90;;;;;;;;;;5035241;28;20185;-74
2021/09/28 03:58:19;;;;;;;26.38;12.45;;;;;;;;;;5030724;28;20230;-74
2021/09/28 04:00:45;;;;;;;25.30;12.32;;;;;;;;;;5037822;28;20178;-74
2021/09/28 04:03:10;;;;;;;30.25;13.45;;;;;;;;;;5029353;28;20700;-75
2021/09/28 04:05:36;;;;;;;26.10;13.38;;;;;;;;;;5034303;28;20221;-74
2021/09/28 04:08:03;;;;;;;26.42;12.18;;;;;;;;;;5028012;28;20221;-74
2021/09/28 04:10:29;;;;;;;24.10;10.93;;;;;;;;;;5034845;28;20197;-74
2021/09/28 04:12:54;;;;;;;22.38;11.05;;;;;;;;;;5026362;28;20247;-74
2021/09/28 04:15:24;;;;;;;26.65;13.00;;;;;;;;;;5037986;28;20178;-74
2021/09/28 04:17:51;;;;;;;23.02;11.77;;;;;;;;;;5032582;28;20336;-74
2021/09/28 04:20:16;;;;;;;20.20;11.20;;;;;;;;;;5034617;28;20193;-75
2021/09/28 04:22:43;;;;;;;19.05;10.30;;;;;;;;;;5042835;28;20206;-74
2021/09/28 04:25:10;;;;;;;23.73;11.57;;;;;;;;;;5037254;28;20198;-74
2021/09/28 04:27:36;;;;;;;30.25;12.48;;;;;;;;;;5045455;28;20181;-74
2021/09/28 04:30:03;;;;;;;28.55;11.57;;;;;;;;;;5028766;28;20217;-74
2021/09/28 04:32:28;;;;;;;26.75;11.60;;;;;;;;;;5038869;28;20189;-74
2021/09/28 04:34:53;;;;;;;29.17;12.10;;;;;;;;;;5031390;28;20536;-74
2021/09/28 04:37:19;;;;;;;21.83;11.23;;;;;;;;;;5038635;28;20190;-74
2021/09/28 04:39:44;;;;;;;21.58;10.85;;;;;;;;;;5031178;28;20525;-74
2021/09/28 04:42:10;;;;;;;23.48;10.82;;;;;;;;;;5039488;28;20189;-74
2021/09/28 04:44:36;;;;;;;25.27;10.93;;;;;;;;;;5035125;28;20201;-74
2021/09/28 04:47:01;;;;;;;27.17;10.23;;;;;;;;;;5044977;28;20181;-74
2021/09/28 04:49:27;;;;;;;20.00;11.05;;;;;;;;;;5030056;28;20605;-74
2021/09/28 04:51:52;;;;;;;25.42;10.05;;;;;;;;;;5040100;28;20194;-73
2021/09/28 04:54:17;;;;;;;27.92;10.88;;;;;;;;;;5036385;28;20276;-73
2021/09/28 04:56:43;;;;;;;27.35;11.27;;;;;;;;;;4333359;28;10000688;-74
2021/09/28 04:59:08;;;;;;;17.02;10.55;;;;;;;;;;5037578;28;20212;-74
2021/09/28 05:01:33;;;;;;;23.05;10.85;;;;;;;;;;5031022;28;20233;-74
2021/09/28 05:03:58;;;;;;;24.83;11.02;;;;;;;;;;5036084;28;20613;-74
2021/09/28 05:06:24;;;;;;;23.60;10.25;;;;;;;;;;5036035;28;20216;-74
2021/09/28 05:08:51;;;;;;;30.63;11.05;;;;;;;;;;5038721;28;20181;-75
2021/09/28 05:11:16;;;;;;;24.63;11.63;;;;;;;;;;5038668;28;20185;-74
2021/09/28 05:13:42;;;;;;;33.00;11.98;;;;;;;;;;5039327;28;20761;-74
2021/09/28 05:16:07;;;;;;;22.17;10.45;;;;;;;;;;5031709;28;20260;-75
2021/09/28 05:18:33;;;;;;;27.75;10.25;;;;;;;;;;5037695;28;20268;-75
2021/09/28 05:21:00;;;;;;;18.48;9.75;;;;;;;;;;5029078;28;20525;-74
2021/09/28 05:23:26;;;;;;;30.17;10.68;;;;;;;;;;5035156;28;20242;-74
2021/09/28 05:25:51;;;;;;;23.38;9.88;;;;;;;;;;5037924;28;20185;-74
2021/09/28 05:28:16;;;;;;;22.00;9.95;;;;;;;;;;5031490;28;20598;-75
2021/09/28 05:30:44;;;;;;;25.98;10.93;;;;;;;;;;5034153;28;20181;-75
2021/09/28 05:33:10;;;;;;;24.02;10.00;;;;;;;;;;5032058;28;20296;-73
2021/09/28 05:35:36;;;;;;;26.98;10.82;;;;;;;;;;5044895;28;20668;-75
2021/09/28 05:38:02;;;;;;;23.95;9.82;;;;;;;;;;5035304;28;20185;-74
2021/09/28 05:40:27;;;;;;;19.45;9.13;;;;;;;;;;5039936;28;20205;-74
2021/09/28 05:42:53;;;;;;;23.20;9.88;;;;;;;;;;5030396;28;20205;-75
2021/09/28 05:45:18;;;;;;;26.38;9.05;;;;;;;;;;5032812;28;20189;-74
2021/09/28 05:47:45;;;;;;;24.05;9.55;;;;;;;;;;5032692;28;20296;-74
2021/09/28 05:50:11;;;;;;;23.35;9.25;;;;;;;;;;5040753;28;20189;-75
2021/09/28 05:52:37;;;;;;;26.08;9.60;;;;;;;;;;5034064;28;20173;-75
2021/09/28 05:55:02;;;;;;;18.98;9.82;;;;;;;;;;5037950;28;20672;-75
2021/09/28 05:57:27;;;;;;;27.98;9.60;;;;;;;;;;5040789;28;20244;-75
2021/09/28 05:59:53;;;;;;;26.70;9.70;;;;;;;;;;5029251;28;20616;-75
2021/09/28 06:02:18;;;;;;;24.80;9.60;;;;;;;;;;5040626;28;20224;-75
2021/09/28 06:04:44;;;;;;;23.65;10.77;;;;;;;;;;5029246;28;20189;-75
2021/09/28 06:07:10;;;;;;;26.95;10.20;;;;;;;;;;5038779;28;20236;-72
2021/09/28 06:09:38;;;;;;;20.83;8.30;;;;;;;;;;5028892;28;20190;-74
2021/09/28 06:12:05;;;;;;;27.98;9.88;;;;;;;;;;5041002;28;20178;-75
2021/09/28 06:14:31;;;;;;;24.63;9.05;;;;;;;;;;5034801;28;20306;-74
2021/09/28 06:16:58;;;;;;;25.33;9.15;;;;;;;;;;5043187;28;20208;-74
2021/09/28 06:19:23;;;;;;;19.02;8.45;;;;;;;;;;5034424;28;23136;-75
2021/09/28 06:21:49;;;;;;;21.70;8.63;;;;;;;;;;5039717;28;20532;-73
2021/09/28 06:24:14;;;;;;;18.63;8.15;;;;;;;;;;5033353;28;20178;-74
2021/09/28 06:26:40;;;;;;;22.10;8.80;;;;;;;;;;5034950;28;20197;-73
2021/09/28 06:29:06;;;;;;;20.98;8.68;;;;;;;;;;5042402;28;20173;-74
2021/09/28 06:31:32;;;;;;;26.17;9.07;;;;;;;;;;5034238;28;20526;-74
2021/09/28 06:33:57;;;;;;;19.73;7.70;;;;;;;;;;5040930;28;20189;-74
2021/09/28 06:36:22;;;;;;;25.77;9.02;;;;;;;;;;5036973;28;20641;-74
2021/09/28 06:38:48;;;;;;;22.00;7.22;;;;;;;;;;5042702;28;20193;-74
2021/09/28 06:41:13;;;;;;;21.45;7.60;;;;;;;;;;5031166;28;20303;-74
2021/09/28 06:43:38;;;;;;;17.08;7.72;;;;;;;;;;5040621;28;20189;-73
2021/09/28 06:46:06;;;;;;;18.45;7.88;;;;;;;;;;5033792;28;20178;-74
2021/09/28 06:48:31;;;;;;;22.42;6.80;;;;;;;;;;5035745;28;20190;-74
2021/09/28 06:50:56;;;;;;;18.23;7.32;;;;;;;;;;5036095;28;20199;-75
2021/09/28 06:53:22;;;;;;;16.15;7.03;;;;;;;;;;5040575;28;20180;-74
2021/09/28 06:55:47;;;;;;;14.98;6.53;;;;;;;;;;5040689;28;20196;-75
2021/09/28 06:58:13;;;;;;;16.73;7.60;;;;;;;;;;5035804;28;20695;-74
2021/09/28 07:00:38;;;;;;;18.00;7.28;;;;;;;;;;5043599;28;20241;-74
2021/09/28 07:03:04;;;;;;;14.07;6.90;;;;;;;;;;5031996;28;20201;-74
2021/09/28 07:05:30;;;;;;;15.27;7.43;;;;;;;;;;5040326;28;20480;-74
2021/09/28 07:07:56;;;;;;;17.08;7.40;;;;;;;;;;5026668;28;20218;-74
2021/09/28 07:10:21;;;;;;;18.08;6.60;;;;;;;;;;5035690;28;20182;-75
2021/09/28 07:12:47;;;;;;;19.85;6.47;;;;;;;;;;5026665;28;20186;-74
2021/09/28 07:15:12;;;;;;;16.20;6.78;;;;;;;;;;5039801;28;20189;-74
2021/09/28 07:17:37;;;;;;;17.75;6.70;;;;;;;;;;5032182;28;20196;-75
2021/09/28 07:20:04;;;;;;;18.38;5.85;;;;;;;;;;5041545;28;20200;-74
2021/09/28 07:22:31;;;;;;;28.05;8.05;;;;;;;;;;5031812;28;20217;-74
2021/09/28 07:24:56;;;;;;;22.50;5.97;;;;;;;;;;5037976;28;20276;-75
2021/09/28 07:27:22;;;;;;;20.20;6.78;;;;;;;;;;5033916;28;20268;-73
2021/09/28 07:29:48;;;;;;;14.25;4.88;;;;;;;;;;5037522;28;20261;-75
2021/09/28 07:32:14;;;;;;;13.43;5.60;;;;;;;;;;5045457;28;20613;-74
2021/09/28 07:34:40;;;;;;;14.02;4.90;;;;;;;;;;5029484;28;20191;-76
2021/09/28 07:37:06;;;;;;;17.52;5.53;;;;;;;;;;5043199;28;20182;-74
2021/09/28 07:39:31;;;;;;;22.80;5.60;;;;;;;;;;5028198;28;20600;-74
2021/09/28 07:41:56;;;;;;;17.42;5.40;;;;;;;;;;5045060;28;20295;-74
2021/09/28 07:44:23;;;;;;;11.23;4.40;;;;;;;;;;5030948;28;20192;-75
2021/09/28 07:46:49;;;;;;;18.95;5.40;;;;;;;;;;5045542;28;20271;-74
2021/09/28 07:49:14;;;;;;;16.00;5.22;;;;;;;;;;5034778;28;20189;-74
2021/09/28 07:51:39;;;;;;;13.68;5.00;;;;;;;;;;5046109;28;21239;-75
2021/09/28 07:54:05;;;;;;;21.80;5.18;;;;;;;;;;5038871;28;20269;-75
2021/09/28 07:56:30;;;;;;;19.38;5.28;;;;;;;;;;5046973;28;20246;-75
2021/09/28 07:58:55;;;;;;;18.58;4.85;;;;;;;;;;5041280;28;20545;-75
2021/09/28 08:01:22;;;;;;;16.65;5.25;;;;;;;;;;5044029;28;20196;-75
2021/09/28 08:03:47;;;;;;;14.52;4.63;;;;;;;;;;5041629;28;20197;-74
2021/09/28 08:06:12;;;;;;;13.93;5.00;;;;;;;;;;5040970;28;20350;-75
2021/09/28 08:08:38;;;;;;;12.68;4.38;;;;;;;;;;5045926;28;20190;-76
2021/09/28 08:11:03;;;;;;;16.70;5.22;;;;;;;;;;5036054;28;20189;-75
2021/09/28 08:13:29;;;;;;;13.93;4.25;;;;;;;;;;5045634;28;20535;-74
2021/09/28 08:15:55;;;;;;;13.00;4.88;;;;;;;;;;5036631;28;20182;-74
2021/09/28 08:18:20;;;;;;;18.02;4.45;;;;;;;;;;5045501;28;20193;-74
2021/09/28 08:20:46;;;;;;;13.50;4.15;;;;;;;;;;5035064;28;20207;-74
2021/09/28 08:23:12;;;;;;;12.20;4.68;;;;;;;;;;5043963;28;20618;-74
2021/09/28 08:25:49;;;;;;;13.07;4.32;;;;;;;;;;5041779;28;20185;-73
2021/09/28 08:31:03;;;;;;;13.05;4.53;;;;;;;;;;5036433;28;20204;-75
2021/09/28 08:33:32;;;;;;;16.20;4.68;;;;;;;;;;5044762;28;20193;-74
2021/09/28 08:35:58;;;;;;;15.35;4.05;;;;;;;;;;5036823;28;20217;-74
2021/09/28 08:38:25;;;;;;;20.52;4.68;;;;;;;;;;5041419;28;21005;-74
2021/09/28 08:40:51;;;;;;;15.98;4.10;;;;;;;;;;5045780;28;20189;-74
2021/09/28 08:43:17;;;;;;;13.98;3.53;;;;;;;;;;5030657;28;20267;-74
2021/09/28 08:45:43;;;;;;;15.45;4.25;;;;;;;;;;5043389;28;20190;-73
2021/09/28 08:48:16;;;;;;;11.85;4.18;;;;;;;;;;5040271;28;20254;-73
2021/09/28 08:50:46;;;;;;;14.70;4.65;;;;;;;;;;5037420;28;20247;-74
2021/09/28 08:53:16;;;;;;;13.10;4.03;;;;;;;;;;5030370;28;20629;-74
2021/09/28 08:55:41;;;;;;;17.13;3.53;;;;;;;;;;5039416;28;20255;-74
2021/09/28 08:58:19;;;;;;;12.75;3.65;;;;;;;;;;5032369;28;20216;-73
2021/09/28 09:00:45;;;;;;;14.73;3.47;;;;;;;;;;5044815;28;20515;-74
2021/09/28 09:03:27;;;;;;;12.27;3.42;;;;;;;;;;5033144;28;20224;-73
2021/09/28 09:05:53;;;;;;;15.52;3.67;;;;;;;;;;5042795;28;20197;-74
2021/09/28 09:08:29;;;;;;;17.55;3.53;;;;;;;;;;5037103;28;20241;-74
2021/09/28 09:10:58;;;;;;;9.55;2.88;;;;;;;;;;5038842;28;20466;-74
2021/09/28 09:13:36;;;;;;;14.63;3.88;;;;;;;;;;5033302;28;20201;-73
2021/09/28 09:16:02;;;;;;;15.02;3.25;;;;;;;;;;5043739;28;20206;-73
2021/09/28 09:18:28;;;;;;;16.38;4.18;;;;;;;;;;5035228;28;20232;-73
2021/09/28 09:20:57;;;;;;;14.10;3.15;;;;;;;;;;5043086;28;20189;-73
2021/09/28 09:23:36;;;;;;;14.20;3.35;;;;;;;;;;5033402;28;20966;-74
2021/09/28 09:26:20;;;;;;;12.88;2.92;;;;;;;;;;5046632;28;20192;-74
2021/09/28 09:28:56;;;;;;;15.13;3.22;;;;;;;;;;5032163;28;20193;-73
2021/09/28 09:31:34;;;;;;;17.05;3.45;;;;;;;;;;5043078;28;20203;-73
2021/09/28 09:34:13;;;;;;;10.68;2.75;;;;;;;;;;5032807;28;20223;-72
2021/09/28 09:36:39;;;;;;;15.45;2.72;;;;;;;;;;5040205;28;20671;-73
2021/09/28 09:39:09;;;;;;;14.98;3.25;;;;;;;;;;5034756;28;20170;-73
2021/09/28 09:41:35;;;;;;;16.50;3.10;;;;;;;;;;5041798;28;20192;-73
2021/09/28 09:44:03;;;;;;;13.63;2.75;;;;;;;;;;5042543;28;20213;-73
2021/09/28 09:46:48;;;;;;;13.57;3.03;;;;;;;;;;5034271;28;20246;-73
2021/09/28 09:49:15;;;;;;;13.23;2.97;;;;;;;;;;5039213;28;20177;-73
2021/09/28 09:51:46;;;;;;;17.45;2.50;;;;;;;;;;5032487;28;20593;-73
2021/09/28 09:54:12;;;;;;;14.98;3.30;;;;;;;;;;5042565;28;20186;-73
2021/09/28 09:56:52;;;;;;;15.30;3.00;;;;;;;;;;5029749;28;20198;-73
2021/09/28 09:59:20;;;;;;;14.52;2.53;;;;;;;;;;5042547;28;20189;-74
2021/09/28 10:01:46;;;;;;;9.73;1.98;;;;;;;;;;5034105;28;20205;-73
2021/09/28 10:04:14;;;;;;;14.02;2.90;;;;;;;;;;5040348;28;20243;-73
2021/09/28 10:06:40;;;;;;;15.38;3.03;;;;;;;;;;5030896;28;20568;-73
2021/09/28 10:09:26;;;;;;;18.25;2.58;;;;;;;;;;5032469;28;20198;-72
2021/09/28 10:11:54;;;;;;;17.17;2.90;;;;;;;;;;5029871;28;20178;-72
2021/09/28 10:14:36;;;;;;;14.30;2.70;;;;;;;;;;5037712;28;20229;-73
2021/09/28 10:17:39;;;;;;;18.63;3.00;;;;;;;;;;5035225;28;20195;-72
2021/09/28 10:20:26;;;;;;;15.13;2.50;;;;;;;;;;5038058;28;20250;-73
2021/09/28 10:22:53;;;;;;;12.13;2.33;;;;;;;;;;5033976;28;20594;-72
2021/09/28 10:25:22;;;;;;;18.08;2.72;;;;;;;;;;5041928;28;20660;-73
2021/09/28 10:27:55;;;;;;;11.23;2.70;;;;;;;;;;5036327;28;20197;-72
2021/09/28 10:30:35;;;;;;;14.93;2.35;;;;;;;;;;5042551;28;20255;-73
2021/09/28 10:33:25;;;;;;;13.60;2.75;;;;;;;;;;5033138;28;20664;-73
2021/09/28 10:36:11;;;;;;;11.68;2.10;;;;;;;;;;5036444;28;20190;-73
2021/09/28 10:38:41;;;;;;;16.70;2.65;;;;;;;;;;5033683;28;20714;-72
2021/09/28 10:41:06;;;;;;;12.23;2.38;;;;;;;;;;5041397;28;20181;-72
2021/09/28 10:43:32;;;;;;;11.00;2.28;;;;;;;;;;5034068;28;20212;-73
2021/09/28 10:46:00;;;;;;;12.20;2.10;;;;;;;;;;5040412;28;20672;-74
2021/09/28 10:48:28;;;;;;;16.63;2.45;;;;;;;;;;5031581;28;20242;-72
2021/09/28 10:51:07;;;;;;;11.90;2.10;;;;;;;;;;5041848;28;20209;-71
2021/09/28 10:53:51;;;;;;;14.38;2.13;;;;;;;;;;5035765;28;20190;-72
2021/09/28 10:56:17;;;;;;;11.65;2.42;;;;;;;;;;5039212;28;20196;-72
2021/09/28 10:59:02;;;;;;;15.18;2.40;;;;;;;;;;5027342;28;20563;-73
2021/09/28 11:01:32;;;;;;;14.68;2.33;;;;;;;;;;5041194;28;20204;-73
2021/09/28 11:04:25;;;;;;;12.57;2.60;;;;;;;;;;5028435;28;20193;-73
2021/09/28 11:06:56;;;;;;;8.02;1.80;;;;;;;;;;5034292;28;20529;-72
2021/09/28 11:09:25;;;;;;;14.82;2.42;;;;;;;;;;5030296;28;20197;-72
2021/09/28 11:11:54;;;;;;;8.73;1.63;;;;;;;;;;5038826;28;20243;-74
2021/09/28 11:14:22;;;;;;;12.23;2.50;;;;;;;;;;5031611;28;20554;-73
2021/09/28 11:16:53;;;;;;;16.20;2.17;;;;;;;;;;5037867;28;20602;-73
2021/09/28 11:19:19;;;;;;;10.73;2.10;;;;;;;;;;5034932;28;20189;-73
2021/09/28 11:21:46;;;;;;;14.05;2.33;;;;;;;;;;5042399;28;20212;-73
2021/09/28 11:24:13;;;;;;;13.02;2.10;;;;;;;;;;5033993;28;20201;-73
2021/09/28 11:26:44;;;;;;;10.60;1.75;;;;;;;;;;5037547;28;20189;-73
2021/09/28 11:29:12;;;;;;;14.07;1.80;;;;;;;;;;5042684;28;20193;-74
2021/09/28 11:31:43;;;;;;;14.60;2.42;;;;;;;;;;5035597;28;20193;-73
2021/09/28 11:34:08;;;;;;;12.77;2.00;;;;;;;;;;5038350;28;20590;-71
2021/09/28 11:36:36;;;;;;;14.32;2.45;;;;;;;;;;5026186;28;20259;-72
2021/09/28 11:39:05;;;;;;;9.93;2.03;;;;;;;;;;5035229;28;20288;-73
2021/09/28 11:41:34;;;;;;;14.38;1.95;;;;;;;;;;5031389;28;20177;-72
2021/09/28 11:44:00;;;;;;;8.30;2.10;;;;;;;;;;5038693;28;20201;-72
2021/09/28 11:46:28;;;;;;;18.13;2.60;;;;;;;;;;5035672;28;20715;-73
2021/09/28 11:48:58;;;;;;;13.63;2.20;;;;;;;;;;5043407;28;20219;-72
2021/09/28 11:51:26;;;;;;;14.57;2.47;;;;;;;;;;5032162;28;20194;-73
2021/09/28 11:53:55;;;;;;;11.85;1.92;;;;;;;;;;5040273;28;20315;-72
2021/09/28 11:56:24;;;;;;;11.60;2.58;;;;;;;;;;5033153;28;20236;-71
2021/09/28 11:58:51;;;;;;;12.40;1.90;;;;;;;;;;5042848;28;20201;-72
2021/09/28 12:01:18;;;;;;;10.77;1.80;;;;;;;;;;5035788;28;20181;-72
2021/09/28 12:04:03;;;;;;;7.03;1.38;;;;;;;;;;4347552;28;10021622;-73
2021/09/28 12:06:45;;;;;;;11.27;2.17;;;;;;;;;;5026805;28;20215;-72
2021/09/28 12:09:11;;;;;;;13.38;2.08;;;;;;;;;;5039568;28;20200;-73
2021/09/28 12:11:56;;;;;;;12.90;2.30;;;;;;;;;;5033121;28;20625;-72
2021/09/28 12:14:31;;;;;;;17.33;2.30;;;;;;;;;;5042788;28;20217;-72
2021/09/28 12:17:08;;;;;;;12.68;1.67;;;;;;;;;;5026929;28;20279;-73
2021/09/28 12:19:34;;;;;;;11.20;1.73;;;;;;;;;;5038803;28;20209;-72
2021/09/28 12:22:00;;;;;;;9.57;2.03;;;;;;;;;;5037350;28;20201;-72
2021/09/28 12:24:28;;;;;;;12.30;2.25;;;;;;;;;;5029767;28;20289;-72
2021/09/28 12:27:05;;;;;;;10.25;2.10;;;;;;;;;;5038747;28;20181;-72
2021/09/28 12:29:38;;;;;;;10.02;1.85;;;;;;;;;;5027340;28;20182;-74
2021/09/28 12:32:07;;;;;;;14.93;1.95;;;;;;;;;;5040971;28;20182;-73
2021/09/28 12:34:54;;;;;;;10.40;1.90;;;;;;;;;;5032685;28;20512;-75
2021/09/28 12:37:20;;;;;;;7.40;1.60;;;;;;;;;;5037663;28;20210;-73
2021/09/28 12:40:08;;;;;;;15.55;2.47;;;;;;;;;;5028636;28;20217;-72
2021/09/28 12:42:35;;;;;;;10.85;2.33;;;;;;;;;;5037111;28;20234;-72
2021/09/28 12:45:06;;;;;;;10.30;2.10;;;;;;;;;;5029031;28;20276;-73
2021/09/28 12:47:40;;;;;;;12.90;2.30;;;;;;;;;;5037231;28;20684;-72
2021/09/28 12:50:20;;;;;;;10.32;1.45;;;;;;;;;;5031752;28;20181;-73
2021/09/28 12:52:47;;;;;;;11.43;2.10;;;;;;;;;;5038326;28;20192;-73
2021/09/28 12:55:13;;;;;;;13.38;2.00;;;;;;;;;;5030278;28;20193;-74
2021/09/28 12:57:39;;;;;;;13.07;1.75;;;;;;;;;;5035428;28;20842;-73
2021/09/28 13:00:06;;;;;;;12.50;2.35;;;;;;;;;;5030287;28;20194;-72
2021/09/28 13:02:32;;;;;;;12.65;2.55;;;;;;;;;;5040055;28;20300;-73
2021/09/28 13:04:59;;;;;;;11.85;1.83;;;;;;;;;;5033102;28;20226;-74
2021/09/28 13:07:25;;;;;;;13.75;1.90;;;;;;;;;;5040315;28;20221;-73
2021/09/28 13:09:50;;;;;;;15.65;2.22;;;;;;;;;;5035016;28;20178;-72
2021/09/28 13:12:16;;;;;;;12.63;2.17;;;;;;;;;;5038365;28;20267;-72
2021/09/28 13:14:41;;;;;;;11.55;2.20;;;;;;;;;;5042511;28;20622;-72
2021/09/28 13:17:07;;;;;;;11.43;2.22;;;;;;;;;;5028700;28;20274;-73
2021/09/28 13:19:32;;;;;;;8.40;1.75;;;;;;;;;;5040507;28;20186;-72
2021/09/28 13:21:57;;;;;;;11.60;2.08;;;;;;;;;;5025538;28;20348;-73
2021/09/28 13:24:23;;;;;;;12.80;2.47;;;;;;;;;;5037707;28;20992;-72
2021/09/28 13:26:48;;;;;;;14.88;2.50;;;;;;;;;;5029021;28;20193;-72
2021/09/28 13:29:14;;;;;;;11.68;2.53;;;;;;;;;;5039928;28;20174;-73
2021/09/28 13:31:40;;;;;;;11.07;1.88;;;;;;;;;;5028110;28;20363;-72
2021/09/28 13:34:06;;;;;;;6.90;1.95;;;;;;;;;;5025131;28;20186;-72
2021/09/28 13:36:35;;;;;;;9.18;1.67;;;;;;;;;;5026340;28;20456;-73
2021/09/28 13:39:01;;;;;;;12.43;1.60;;;;;;;;;;5036262;28;20189;-73
2021/09/28 13:41:27;;;;;;;6.97;1.80;;;;;;;;;;5028843;28;20227;-72
2021/09/28 13:43:52;;;;;;;10.13;1.70;;;;;;;;;;5036397;28;20202;-73
2021/09/28 13:46:17;;;;;;;9.65;2.08;;;;;;;;;;5033308;28;20200;-74
2021/09/28 13:48:43;;;;;;;8.27;1.67;;;;;;;;;;5030139;28;20190;-72
2021/09/28 13:51:08;;;;;;;8.77;1.80;;;;;;;;;;5035557;28;20196;-72
2021/09/28 13:53:33;;;;;;;7.35;2.03;;;;;;;;;;5033818;28;20250;-72
2021/09/28 13:55:59;;;;;;;10.82;2.00;;;;;;;;;;5036133;28;20212;-73
2021/09/28 13:58:24;;;;;;;8.85;1.58;;;;;;;;;;5030910;28;20274;-72
2021/09/28 14:00:49;;;;;;;8.88;1.88;;;;;;;;;;5037969;28;20177;-73
2021/09/28 14:03:15;;;;;;;11.60;1.80;;;;;;;;;;5028093;28;20229;-74
2021/09/28 14:05:40;;;;;;;8.32;1.55;;;;;;;;;;5037378;28;20185;-74
2021/09/28 14:08:07;;;;;;;8.27;1.67;;;;;;;;;;5026178;28;20225;-72
2021/09/28 14:10:32;;;;;;;7.38;1.25;;;;;;;;;;5037863;28;20280;-75
2021/09/28 14:13:00;;;;;;;11.13;1.85;;;;;;;;;;5031154;28;21101;-75
2021/09/28 14:15:26;;;;;;;6.85;1.42;;;;;;;;;;5028832;28;21660;-73
2021/09/28 14:17:51;;;;;;;9.65;1.83;;;;;;;;;;5035168;28;20224;-72
2021/09/28 14:20:17;;;;;;;7.93;2.03;;;;;;;;;;5026678;28;20189;-73
2021/09/28 14:22:42;;;;;;;12.68;2.13;;;;;;;;;;5035246;28;20209;-72
2021/09/28 14:25:08;;;;;;;6.70;1.63;;;;;;;;;;5027712;28;20239;-72
2021/09/28 14:27:33;;;;;;;9.77;1.80;;;;;;;;;;5036703;28;20181;-72
2021/09/28 14:29:59;;;;;;;8.38;1.73;;;;;;;;;;5026376;28;20712;-74